createdAt,value
2022-11-27T00:01:17.075Z,97.3
2022-11-27T00:04:17.107Z,97
2022-11-27T00:07:17.169Z,96.8
2022-11-27T00:10:17.087Z,96.6
2022-11-27T00:13:17.088Z,96.6
2022-11-27T00:16:17.165Z,96.5
2022-11-27T00:19:17.099Z,96.5
2022-11-27T00:22:17.107Z,96.4
2022-11-27T00:25:17.112Z,96.5
2022-11-27T00:28:17.117Z,96.6
2022-11-27T00:31:17.266Z,96.6
2022-11-27T00:34:17.149Z,96.5
2022-11-27T00:37:17.132Z,96.4
2022-11-27T00:40:17.134Z,96.5
2022-11-27T00:43:17.136Z,96.6
2022-11-27T00:46:17.187Z,96.6
2022-11-27T00:49:17.148Z,96.6
2022-11-27T00:52:17.178Z,96.7
2022-11-27T00:55:17.160Z,96.7
2022-11-27T00:58:17.160Z,96.8
2022-11-27T01:01:17.191Z,96.7
2022-11-27T01:04:17.173Z,96.6
2022-11-27T01:07:17.211Z,96.6
2022-11-27T01:10:17.207Z,96.8
2022-11-27T01:13:17.186Z,96.9
2022-11-27T01:16:17.304Z,97.1
2022-11-27T01:19:17.194Z,97.2
2022-11-27T01:22:17.198Z,97.3
2022-11-27T01:25:17.194Z,97.2
2022-11-27T01:28:17.227Z,97.1
2022-11-27T01:31:17.252Z,96.8
2022-11-27T01:34:17.214Z,96.5
2022-11-27T01:37:17.221Z,96.2
2022-11-27T01:40:17.219Z,96.1
2022-11-27T01:43:17.224Z,96.1
2022-11-27T01:46:17.286Z,96.2
2022-11-27T01:49:17.238Z,96.4
2022-11-27T01:52:17.235Z,96.5
2022-11-27T01:55:17.241Z,96.4
2022-11-27T01:58:17.238Z,96.4
2022-11-27T02:01:17.277Z,96.4
2022-11-27T02:04:17.281Z,96.5
2022-11-27T02:07:17.294Z,96.6
2022-11-27T02:10:17.256Z,96.7
2022-11-27T02:13:17.269Z,96.8
2022-11-27T02:16:18.225Z,96.8
2022-11-27T02:19:17.276Z,96.9
2022-11-27T02:22:17.282Z,97
2022-11-27T02:25:17.291Z,97
2022-11-27T02:28:17.292Z,96.9
2022-11-27T02:31:17.342Z,96.8
2022-11-27T02:34:17.303Z,96.7
2022-11-27T02:37:17.311Z,96.8
2022-11-27T02:40:17.317Z,96.8
2022-11-27T02:43:17.441Z,96.9
2022-11-27T02:46:17.363Z,97
2022-11-27T02:49:17.322Z,97
2022-11-27T02:52:17.327Z,96.9
2022-11-27T02:55:17.375Z,96.8
2022-11-27T02:58:17.335Z,96.8
2022-11-27T03:01:17.491Z,97
2022-11-27T03:04:17.373Z,97.1
2022-11-27T03:07:17.380Z,97.1
2022-11-27T03:10:17.354Z,97.1
2022-11-27T03:13:17.368Z,97
2022-11-27T03:16:17.452Z,97
2022-11-27T03:19:17.494Z,97
2022-11-27T03:22:17.378Z,97
2022-11-27T03:25:17.383Z,97
2022-11-27T03:28:17.384Z,97
2022-11-27T03:31:17.456Z,96.9
2022-11-27T03:34:17.396Z,96.9
2022-11-27T03:37:17.520Z,96.7
2022-11-27T03:40:17.410Z,96.5
2022-11-27T03:43:17.411Z,96.3
2022-11-27T03:46:17.559Z,96.3
2022-11-27T03:49:17.425Z,96.3
2022-11-27T03:52:17.431Z,96.5
2022-11-27T03:55:17.552Z,96.6
2022-11-27T03:58:17.436Z,96.7
2022-11-27T04:01:17.444Z,96.7
2022-11-27T04:04:17.490Z,96.7
2022-11-27T04:07:17.609Z,96.5
2022-11-27T04:10:17.455Z,96.5
2022-11-27T04:13:17.583Z,96.5
2022-11-27T04:16:17.519Z,96.5
2022-11-27T04:19:17.468Z,96.5
2022-11-27T04:22:17.470Z,96.5
2022-11-27T04:25:17.472Z,96.7
2022-11-27T04:28:17.474Z,96.7
2022-11-27T04:31:17.672Z,96.8
2022-11-27T04:34:17.484Z,96.8
2022-11-27T04:37:17.489Z,96.8
2022-11-27T04:40:17.491Z,96.7
2022-11-27T04:43:17.501Z,96.7
2022-11-27T04:46:17.584Z,96.7
2022-11-27T04:49:17.629Z,96.8
2022-11-27T04:52:17.509Z,96.9
2022-11-27T04:55:17.513Z,97
2022-11-27T04:58:17.520Z,97.1
2022-11-27T05:01:17.571Z,97.1
2022-11-27T05:04:17.535Z,97.1
2022-11-27T05:07:17.690Z,97.2
2022-11-27T05:10:17.536Z,97.1
2022-11-27T05:13:17.535Z,97
2022-11-27T05:16:17.662Z,97.1
2022-11-27T05:19:17.549Z,97.1
2022-11-27T05:22:17.564Z,97.2
2022-11-27T05:25:17.674Z,97.2
2022-11-27T05:28:20.111Z,97.1
2022-11-27T05:31:17.615Z,97
2022-11-27T05:34:17.565Z,96.9
2022-11-27T05:37:19.589Z,96.9
2022-11-27T05:40:17.578Z,97
2022-11-27T05:43:17.701Z,97
2022-11-27T05:46:17.637Z,96.9
2022-11-27T05:49:17.596Z,97.1
2022-11-27T05:52:17.606Z,97.5
2022-11-27T05:55:17.613Z,97.8
2022-11-27T05:58:17.608Z,98
2022-11-27T06:01:17.732Z,98.1
2022-11-27T06:04:17.625Z,98.1
2022-11-27T06:07:17.672Z,97.9
2022-11-27T06:10:17.624Z,97.5
2022-11-27T06:13:17.634Z,97.2
2022-11-27T06:16:17.691Z,96.9
2022-11-27T06:19:17.754Z,96.8
2022-11-27T06:22:17.641Z,96.8
2022-11-27T06:25:17.647Z,96.9
2022-11-27T06:28:17.651Z,97
2022-11-27T06:31:18.374Z,97
2022-11-27T06:34:17.657Z,97.1
2022-11-27T06:37:17.789Z,97.2
2022-11-27T06:40:17.673Z,97.3
2022-11-27T06:43:17.675Z,97.4
2022-11-27T06:46:17.835Z,97.6
2022-11-27T06:49:17.683Z,97.6
2022-11-27T06:52:17.687Z,97.6
2022-11-27T06:55:17.811Z,97.6
2022-11-27T06:58:17.698Z,97.6
2022-11-27T07:01:17.780Z,97.6
2022-11-27T07:04:17.700Z,97.6
2022-11-27T07:07:17.743Z,97.7
2022-11-27T07:10:17.722Z,97.7
2022-11-27T07:13:17.903Z,97.7
2022-11-27T07:16:17.815Z,97.8
2022-11-27T07:19:17.741Z,97.8
2022-11-27T07:22:17.778Z,97.8
2022-11-27T07:25:17.783Z,97.9
2022-11-27T07:28:19.160Z,97.9
2022-11-27T07:31:17.985Z,97.9
2022-11-27T07:34:21.558Z,97.9
2022-11-27T07:37:17.796Z,97.9
2022-11-27T07:40:17.793Z,97.9
2022-11-27T07:43:17.799Z,97.9
2022-11-27T07:46:17.878Z,98
2022-11-27T07:49:17.924Z,98.1
2022-11-27T07:52:17.803Z,98.2
2022-11-27T07:55:17.803Z,98.2
2022-11-27T07:58:17.807Z,98.2
2022-11-27T08:01:17.964Z,98.3
2022-11-27T08:04:17.852Z,98.3
2022-11-27T08:07:17.944Z,98.2
2022-11-27T08:10:17.815Z,98.1
2022-11-27T08:13:17.812Z,98.1
2022-11-27T08:16:17.923Z,98
2022-11-27T08:19:17.812Z,97.8
2022-11-27T08:22:17.818Z,97.7
2022-11-27T08:25:17.939Z,97.7
2022-11-27T08:28:17.816Z,97.7
2022-11-27T08:31:17.844Z,97.7
2022-11-27T08:34:17.814Z,97.5
2022-11-27T08:37:17.817Z,97.2
2022-11-27T08:40:17.819Z,97
2022-11-27T08:43:17.945Z,96.7
2022-11-27T08:46:17.924Z,96
2022-11-27T08:49:17.824Z,95.2
2022-11-27T08:52:17.824Z,94.7
2022-11-27T08:55:17.829Z,94.2
2022-11-27T08:58:17.832Z,94
2022-11-27T09:01:18.022Z,93.7
2022-11-27T09:04:17.857Z,93.4
2022-11-27T09:07:17.850Z,92.7
2022-11-27T09:10:17.879Z,91.8
2022-11-27T09:13:17.867Z,91.9
2022-11-27T09:16:17.904Z,92
2022-11-27T09:19:17.994Z,90.9
2022-11-27T09:22:17.874Z,90.5
2022-11-27T09:25:17.883Z,89.6
2022-11-27T09:28:17.882Z,89.2
2022-11-27T09:31:17.889Z,89.5
2022-11-27T09:34:17.884Z,89.7
2022-11-27T09:37:18.014Z,90.1
2022-11-27T09:40:17.901Z,89.1
2022-11-27T09:43:17.897Z,89.2
2022-11-27T09:46:17.974Z,89.2
2022-11-27T09:49:17.903Z,89
2022-11-27T09:52:17.899Z,88.5
2022-11-27T09:55:23.856Z,87.5
2022-11-27T09:58:23.918Z,87.5
2022-11-27T10:01:18.087Z,87.7
2022-11-27T10:04:17.913Z,87.4
2022-11-27T10:07:17.961Z,86.6
2022-11-27T10:10:17.925Z,86.7
2022-11-27T10:13:17.928Z,86.7
2022-11-27T10:16:17.990Z,86.5
2022-11-27T10:19:18.057Z,86
2022-11-27T10:22:20.915Z,85.5
2022-11-27T10:25:17.954Z,85.6
2022-11-27T10:28:17.952Z,85.6
2022-11-27T10:31:17.994Z,85.3
2022-11-27T10:34:17.958Z,84.9
2022-11-27T10:37:18.084Z,84.8
2022-11-27T10:40:17.978Z,85.3
2022-11-27T10:43:17.968Z,85.7
2022-11-27T10:46:17.986Z,85.2
2022-11-27T10:49:17.994Z,85.5
2022-11-27T10:52:17.988Z,84.9
2022-11-27T10:55:18.119Z,84.8
2022-11-27T10:58:18.005Z,85
2022-11-27T11:01:18.116Z,85.1
2022-11-27T11:04:36.810Z,85.7
2022-11-27T11:07:18.043Z,85.9
2022-11-27T11:10:18.033Z,84.6
2022-11-27T11:13:18.147Z,84.2
2022-11-27T11:16:21.974Z,83.9
2022-11-27T11:19:18.246Z,84.8
2022-11-27T11:22:18.050Z,85.5
2022-11-27T11:25:18.052Z,85.5
2022-11-27T11:28:18.062Z,86.2
2022-11-27T11:31:18.204Z,86.5
2022-11-27T11:34:18.074Z,86.9
2022-11-27T11:37:18.081Z,86.8
2022-11-27T11:40:18.094Z,87.3
2022-11-27T11:43:18.091Z,87.3
2022-11-27T11:46:18.146Z,87.4
2022-11-27T11:49:18.214Z,87.6
2022-11-27T11:52:18.103Z,87.7
2022-11-27T11:55:18.108Z,87.8
2022-11-27T11:58:18.114Z,87.6
2022-11-27T12:01:31.452Z,87.5
2022-11-27T12:04:18.150Z,87.5
2022-11-27T12:07:18.284Z,87.5
2022-11-27T12:10:18.134Z,87.6
2022-11-27T12:13:18.135Z,87.6
2022-11-27T12:16:18.159Z,87.3
2022-11-27T12:19:18.136Z,87.1
2022-11-27T12:22:18.141Z,87
2022-11-27T12:25:18.264Z,87
2022-11-27T12:28:18.146Z,86.8
2022-11-27T12:31:18.163Z,86.5
2022-11-27T12:34:18.148Z,86.3
2022-11-27T12:37:18.151Z,85.9
2022-11-27T12:40:18.161Z,85.8
2022-11-27T12:43:18.287Z,85.7
2022-11-27T12:46:18.181Z,85.6
2022-11-27T12:49:18.174Z,85.7
2022-11-27T12:52:18.182Z,85.5
2022-11-27T12:55:18.192Z,85.4
2022-11-27T12:58:18.193Z,85.2
2022-11-27T13:01:26.485Z,84.7
2022-11-27T13:04:18.332Z,84.7
2022-11-27T13:07:18.279Z,84.7
2022-11-27T13:10:18.214Z,84.6
2022-11-27T13:13:18.221Z,84.8
2022-11-27T13:16:18.274Z,84.8
2022-11-27T13:19:18.237Z,84.9
2022-11-27T13:22:18.357Z,85
2022-11-27T13:25:18.244Z,85.2
2022-11-27T13:28:18.248Z,85.5
2022-11-27T13:31:18.321Z,85.7
2022-11-27T13:34:18.266Z,85.8
2022-11-27T13:37:18.274Z,86.1
2022-11-27T13:40:18.395Z,86.1
2022-11-27T13:43:18.289Z,86.1
2022-11-27T13:46:18.338Z,85.9
2022-11-27T13:49:18.292Z,85.7
2022-11-27T13:52:18.299Z,85.5
2022-11-27T13:55:18.304Z,85.5
2022-11-27T13:58:18.425Z,85.3
2022-11-27T14:01:18.367Z,85.3
2022-11-27T14:04:18.316Z,85.2
2022-11-27T14:07:18.346Z,85.3
2022-11-27T14:10:18.322Z,85.5
2022-11-27T14:13:18.326Z,85.7
2022-11-27T14:16:18.486Z,85.8
2022-11-27T14:19:18.336Z,85.8
2022-11-27T14:22:18.339Z,85.6
2022-11-27T14:25:18.347Z,85.7
2022-11-27T14:28:18.358Z,85.9
2022-11-27T14:31:18.428Z,86.1
2022-11-27T14:34:23.310Z,86.3
2022-11-27T14:37:18.364Z,86.5
2022-11-27T14:40:18.364Z,86.8
2022-11-27T14:43:18.366Z,87
2022-11-27T14:46:18.498Z,87.1
2022-11-27T14:49:18.380Z,87.2
2022-11-27T14:52:18.502Z,87.4
2022-11-27T14:55:18.388Z,87.6
2022-11-27T14:58:18.390Z,87.7
2022-11-27T15:01:18.400Z,87.8
2022-11-27T15:04:18.403Z,87.8
2022-11-27T15:07:18.493Z,87.9
2022-11-27T15:10:18.531Z,87.8
2022-11-27T15:13:20.881Z,87.9
2022-11-27T15:16:18.466Z,87.9
2022-11-27T15:19:18.426Z,88
2022-11-27T15:22:18.452Z,88.1
2022-11-27T15:25:18.436Z,88.2
2022-11-27T15:28:18.563Z,88.2
2022-11-27T15:31:18.471Z,88.3
2022-11-27T15:34:18.449Z,88.3
2022-11-27T15:37:18.455Z,88.5
2022-11-27T15:40:18.462Z,88.6
2022-11-27T15:43:18.465Z,88.6
2022-11-27T15:46:18.604Z,88.7
2022-11-27T15:49:18.472Z,88.7
2022-11-27T15:52:18.494Z,88.6
2022-11-27T15:55:18.488Z,88.6
2022-11-27T15:58:18.513Z,88.6
2022-11-27T16:01:18.537Z,88.6
2022-11-27T16:04:18.619Z,88.6
2022-11-27T16:07:18.582Z,88.6
2022-11-27T16:10:18.517Z,88.6
2022-11-27T16:13:18.518Z,88.7
2022-11-27T16:16:18.604Z,88.7
2022-11-27T16:19:18.537Z,88.6
2022-11-27T16:22:18.651Z,88.7
2022-11-27T16:25:18.534Z,88.6
2022-11-27T16:28:18.535Z,88.6
2022-11-27T16:31:18.590Z,88.7
2022-11-27T16:34:18.543Z,88.7
2022-11-27T16:37:18.769Z,88.8
2022-11-27T16:40:18.679Z,89.1
2022-11-27T16:43:18.559Z,89.1
2022-11-27T16:46:18.618Z,89.1
2022-11-27T16:49:18.567Z,89.1
2022-11-27T16:52:18.572Z,88.9
2022-11-27T16:55:18.576Z,88.9
2022-11-27T16:58:18.789Z,88.8
2022-11-27T17:01:18.631Z,88.7
2022-11-27T17:04:18.668Z,88.7
2022-11-27T17:07:18.626Z,88.7
2022-11-27T17:10:18.596Z,88.7
2022-11-27T17:13:18.595Z,88.6
2022-11-27T17:16:18.754Z,88.6
2022-11-27T17:19:18.615Z,88.5
2022-11-27T17:22:18.613Z,88.5
2022-11-27T17:25:18.622Z,88.5
2022-11-27T17:28:18.628Z,88.5
2022-11-27T17:31:18.714Z,88.5
2022-11-27T17:34:18.753Z,88.5
2022-11-27T17:37:18.643Z,88.6
2022-11-27T17:40:18.642Z,88.6
2022-11-27T17:43:18.648Z,88.7
2022-11-27T17:46:18.680Z,88.7
2022-11-27T17:49:18.653Z,88.6
2022-11-27T17:52:18.778Z,88.7
2022-11-27T17:55:18.656Z,88.7
2022-11-27T17:58:18.663Z,88.7
2022-11-27T18:01:18.727Z,88.7
2022-11-27T18:04:18.678Z,88.7
2022-11-27T18:07:18.704Z,88.7
2022-11-27T18:10:18.801Z,88.8
2022-11-27T18:13:18.685Z,88.9
2022-11-27T18:16:18.706Z,88.9
2022-11-27T18:19:18.697Z,88.9
2022-11-27T18:22:18.701Z,88.9
2022-11-27T18:25:18.701Z,88.8
2022-11-27T18:28:18.834Z,88.8
2022-11-27T18:31:18.767Z,88.7
2022-11-27T18:34:18.716Z,88.7
2022-11-27T18:37:18.715Z,88.8
2022-11-27T18:40:18.721Z,88.8
2022-11-27T18:43:18.723Z,88.7
2022-11-27T18:46:18.876Z,88.7
2022-11-27T18:49:18.737Z,88.7
2022-11-27T18:52:18.740Z,88.7
2022-11-27T18:55:18.814Z,88.7
2022-11-27T18:58:18.752Z,88.6
2022-11-27T19:01:18.826Z,88.5
2022-11-27T19:04:18.881Z,88.5
2022-11-27T19:07:18.801Z,88.4
2022-11-27T19:10:18.771Z,88.4
2022-11-27T19:13:18.777Z,88.3
2022-11-27T19:16:18.866Z,88.3
2022-11-27T19:19:52.632Z,88.4
2022-11-27T19:22:18.909Z,88.3
2022-11-27T19:25:18.791Z,88.3
2022-11-27T19:28:18.797Z,88.3
2022-11-27T19:31:18.858Z,88.2
2022-11-27T19:34:18.801Z,88.1
2022-11-27T19:37:28.831Z,88
2022-11-27T19:40:18.920Z,87.9
2022-11-27T19:43:18.810Z,87.9
2022-11-27T19:46:18.848Z,88
2022-11-27T19:49:18.825Z,88
2022-11-27T19:52:18.825Z,88.1
2022-11-27T19:55:18.829Z,88.1
2022-11-27T19:58:18.957Z,88.1
2022-11-27T20:01:18.885Z,88.1
2022-11-27T20:04:18.845Z,88.1
2022-11-27T20:07:18.860Z,88.1
2022-11-27T20:10:18.848Z,88
2022-11-27T20:13:18.856Z,87.8
2022-11-27T20:16:19.017Z,87.7
2022-11-27T20:19:18.871Z,87.7
2022-11-27T20:22:18.878Z,87.7
2022-11-27T20:25:20.381Z,87.6
2022-11-27T20:28:18.879Z,87.6
2022-11-27T20:31:18.931Z,87.5
2022-11-27T20:34:19.042Z,87.4
2022-11-27T20:37:18.898Z,87.5
2022-11-27T20:40:18.898Z,87.6
2022-11-27T20:43:18.913Z,87.7
2022-11-27T20:46:18.967Z,87.8
2022-11-27T20:49:18.916Z,87.7
2022-11-27T20:52:19.040Z,87.7
2022-11-27T20:55:18.928Z,87.5
2022-11-27T20:58:18.931Z,87.4
2022-11-27T21:01:19.026Z,87.2
2022-11-27T21:04:18.934Z,87
2022-11-27T21:07:18.963Z,87
2022-11-27T21:10:19.061Z,87.1
2022-11-27T21:13:18.939Z,87.1
2022-11-27T21:16:19.006Z,87.3
2022-11-27T21:19:18.949Z,87.3
2022-11-27T21:22:18.960Z,87.3
2022-11-27T21:25:22.724Z,87.3
2022-11-27T21:28:19.081Z,87.4
2022-11-27T21:31:19.031Z,87.4
2022-11-27T21:34:18.972Z,87.5
2022-11-27T21:37:18.979Z,87.6
2022-11-27T21:40:18.984Z,87.5
2022-11-27T21:43:18.986Z,87.5
2022-11-27T21:46:19.166Z,87.5
2022-11-27T21:49:18.997Z,87.5
2022-11-27T21:52:19.008Z,87.6
2022-11-27T21:55:19.009Z,87.6
2022-11-27T21:58:19.009Z,87.6
2022-11-27T22:01:19.071Z,87.6
2022-11-27T22:04:19.140Z,87.6
2022-11-27T22:07:19.040Z,87.6
2022-11-27T22:10:19.031Z,87.6
2022-11-27T22:13:19.037Z,87.7
2022-11-27T22:16:19.075Z,87.6
2022-11-27T22:19:19.050Z,87.5
2022-11-27T22:22:19.185Z,87.6
2022-11-27T22:25:19.057Z,87.6
2022-11-27T22:28:19.061Z,87.7
2022-11-27T22:31:19.114Z,87.7
2022-11-27T22:34:19.065Z,87.5
2022-11-27T22:37:19.081Z,87.3
2022-11-27T22:40:19.205Z,87.2
2022-11-27T22:43:19.088Z,87.1
2022-11-27T22:46:19.149Z,86.9
2022-11-27T22:49:19.103Z,86.8
2022-11-27T22:52:19.099Z,86.8
2022-11-27T22:55:19.101Z,86.9
2022-11-27T22:58:19.230Z,86.8
2022-11-27T23:01:19.120Z,86.8
2022-11-27T23:04:19.112Z,86.7
2022-11-27T23:07:23.798Z,86.9
2022-11-27T23:10:19.134Z,87
2022-11-27T23:13:19.133Z,87.1
2022-11-27T23:16:19.302Z,87.1
2022-11-27T23:19:19.150Z,87
2022-11-27T23:22:19.145Z,87
2022-11-27T23:25:19.152Z,86.8
2022-11-27T23:28:19.157Z,86.7
2022-11-27T23:31:32.517Z,86.6
2022-11-27T23:34:19.277Z,86.7
2022-11-27T23:37:19.165Z,86.8
2022-11-27T23:40:19.172Z,86.8
2022-11-27T23:43:19.182Z,86.9
2022-11-27T23:46:19.218Z,86.8
2022-11-27T23:49:19.187Z,86.8
2022-11-27T23:52:19.327Z,86.8
2022-11-27T23:55:19.200Z,86.7
2022-11-27T23:58:19.199Z,86.7
